Mill Creek, Mississippi
Current Conditions -  °F | °C
As of 12:55 PM on Thursday 23 Oct 2014 (Local Time) from KBXA Reporting Station
NA  
Wind Chill: 74°   Ceiling: NA
Heat Index: 74°   Visibility: 10mi
Dew Point: 43°   Wind: 6mph
Humidity: 34%   Direction: 90°E
Pressure: 30.1"   Gusts: NA
Location:  30.6922°N, 89.5187°W
Report Text: KBXA 231755Z AUTO 09005KT 10SM 23/06 A3010 RMK AO2 LTG DSNT SE T02310063 10231 20064
Loading
Personal Weather Stations






























Interactive Weather Map
Tropical Storm Tracking
New forecast layout! Learn more

10-Day Weather Forecast

Advertisements
Track Severe Weather on mobile